Main page
METAR-TAF:

METAR-TAF

Airports :

Christchurch International Airport

Christchurch, New Zealand

latitude: 43-29S, longitude: 172-33E, elevation: 38 m

Current weather observation

The report was made 23 minutes ago, at 16:30 UTC
Wind 1 kt from the North/Northwest
Temperature 2°C
Humidity 100%
Pressure 1023 hPa
Visibility: 0200 m
Shallow fog

METAR: NZCH 291630Z AUTO 34001KT 0200 R02/0750D R20/P2000N MIFG NCD 02/02 Q1023 NOSIG

Time: 04:53 (16:53 UTC)

Forecast

The report was made 5 hours and 46 minutes ago, at 11:07 UTC
Forecast valid from 29 at 12 UTC to 30 at 12 UTC
Wind 5 kt from the West
Visibility 10 km or more
Broken clouds at a height of 3000 ft
Probability 30% :
Temporary
from 29 at 13 UTC to 29 at 20 UTC
Visibility: 2000 m
mist
From 30 at 0000 UTC
Wind 10 kt from the Northeast
Visibility 10 km or more
no clouds below 1500 m and no cumulonimbus

TAF: NZCH 291107Z 2912/3012 27005KT 9999 BKN030 PROB30 TEMPO 2913/2920 2000 BR FM300000 04010KT CAVOK

Weather observations and forecasts of more than 4000 airports (METAR and TAF reports).

The available stations are represented by yellow and red dots on the map.

Hover mouse over dot to see the name of the station.

Then click to see weather observations and forecasts.

To change the map : click on the green buttons with a black cross to zoom in, on the green button with a dash to zoom out, or on the green arrows for adjacent maps.


METAR-TAF: